createdAt,value
2022-11-22T00:04:52.804Z,999.63
2022-11-22T00:19:54.710Z,999.49
2022-11-22T00:34:57.109Z,999.33
2022-11-22T00:49:58.278Z,999.32
2022-11-22T01:05:01.079Z,999.31
2022-11-22T01:20:03.631Z,999.20
2022-11-22T01:35:06.484Z,999.24
2022-11-22T01:50:07.452Z,999.43
2022-11-22T02:05:09.340Z,999.33
2022-11-22T02:20:11.241Z,999.38
2022-11-22T02:35:12.580Z,999.13
2022-11-22T02:50:14.538Z,998.85
2022-11-22T03:05:16.485Z,998.91
2022-11-22T03:20:18.281Z,998.90
2022-11-22T03:35:20.735Z,998.71
2022-11-22T03:50:22.094Z,998.59
2022-11-22T04:05:24.568Z,998.38
2022-11-22T04:20:27.508Z,998.18
2022-11-22T04:35:29.189Z,998.38
2022-11-22T04:50:31.057Z,998.24
2022-11-22T05:05:32.950Z,998.11
2022-11-22T05:20:36.348Z,998.19
2022-11-22T05:35:38.797Z,998.29
2022-11-22T05:50:41.161Z,998.51
2022-11-22T06:05:43.081Z,998.47
2022-11-22T06:20:45.414Z,998.60
2022-11-22T06:35:47.314Z,998.50
2022-11-22T06:50:49.215Z,998.59
2022-11-22T07:05:50.572Z,998.77
2022-11-22T07:20:52.980Z,998.87
2022-11-22T07:35:54.843Z,998.84
2022-11-22T07:50:55.741Z,998.90
2022-11-22T08:05:58.765Z,998.45
2022-11-22T08:20:59.215Z,998.45
2022-11-22T08:36:01.291Z,998.36
2022-11-22T08:51:02.156Z,998.42
2022-11-22T09:21:07.525Z,998.76
2022-11-22T09:36:09.445Z,998.94
2022-11-22T09:51:09.897Z,999.19
2022-11-22T10:06:10.212Z,999.18
2022-11-22T10:21:11.951Z,999.27
2022-11-22T10:36:15.701Z,999.11
2022-11-22T10:51:16.670Z,999.16
2022-11-22T11:06:33.458Z,999.12
2022-11-22T11:21:23.881Z,998.86
2022-11-22T11:36:26.118Z,999.09
2022-11-22T11:51:26.375Z,998.92
2022-11-22T12:06:28.703Z,999.14
2022-11-22T12:21:29.909Z,999.04
2022-11-22T12:36:33.029Z,998.84
2022-11-22T12:51:37.561Z,998.80
2022-11-22T13:06:41.284Z,998.71
2022-11-22T13:21:43.704Z,998.68
2022-11-22T13:36:45.244Z,998.53
2022-11-22T13:51:46.751Z,998.66
2022-11-22T14:06:48.669Z,998.62
2022-11-22T14:21:50.393Z,998.70
2022-11-22T14:36:51.635Z,998.75
2022-11-22T14:51:53.368Z,998.89
2022-11-22T15:09:18.389Z,998.84
2022-11-22T16:07:18.566Z,999.02
2022-11-22T16:22:21.013Z,998.84
2022-11-22T16:37:21.583Z,999.20
2022-11-22T16:52:23.149Z,999.35
2022-11-22T17:07:23.978Z,999.47
2022-11-22T17:22:26.052Z,999.48
2022-11-22T17:37:28.970Z,999.56
2022-11-22T17:52:29.337Z,999.72
2022-11-22T18:07:30.627Z,999.78
2022-11-22T18:22:32.194Z,999.77
2022-11-22T18:37:33.068Z,999.93
2022-11-22T18:52:33.227Z,999.86
2022-11-22T19:07:35.251Z,999.93
2022-11-22T19:22:35.673Z,1000.09
2022-11-22T19:37:38.083Z,1000.28
2022-11-22T19:52:42.267Z,1000.40
2022-11-22T20:07:45.234Z,1000.32
2022-11-22T20:22:46.398Z,1000.17
2022-11-22T20:37:48.584Z,1000.40
2022-11-22T20:52:50.999Z,1000.38
2022-11-22T21:07:54.447Z,1000.39
2022-11-22T21:22:55.750Z,1000.51
2022-11-22T21:37:57.719Z,1000.43
2022-11-22T21:52:58.691Z,1000.46
2022-11-22T22:08:00.772Z,1000.39
2022-11-22T22:23:02.681Z,1000.42
2022-11-22T22:38:05.365Z,1000.50
2022-11-22T22:53:08.079Z,1000.47
2022-11-22T23:08:08.997Z,1000.41
2022-11-22T23:23:09.133Z,1000.53
2022-11-22T23:38:11.274Z,1000.52
2022-11-22T23:53:12.751Z,1000.47
